»·PEaware :: NKS110 KSAN-KLAS

NKS110 :: KSAN-KLAS

FLIGHT INFORMATION

Flight Status: Arrived
Operator:
Spirit Airlines
More flights by this operator :: More flights under this callsign
Pilot: Ben L. (9444)
Aircraft: AIRBUS A320
(A320)
More flights by this aircraft type
Origin: KSAN San Diego Intl-Lindbergh
United States
Destination: KLAS McCarran Intl
United States
More flights between these airports :: More routes between these airports
Route: PADRZ2 CHKNN SEBBY YELAH MISEN KEPEC6
File this flight plan on PilotEdge
Remarks:
Altitude:
(Current/Filed)
35,000ft
Speed:
(Current/Filed)
535kts
Departed: 26-Dec-17 10:06 AM
Arrived: 26-Dec-17 11:03 AM
Distance/Time
Traveled:
225nm/0:57
Distance/Time
To Go:
Arrived

Flight Plot

Page will automatically refresh every two minutes.

Flight plan parsing failed; only flown route is shown


Map Options




Map Legend


Flown Route
Filed Route
Departure Airport
Arrival Airport
Navaid (VOR, NDB)
Fix

Horizontal Profiles

Position Reports

Time Latitude Longitude Heading Altitude Ground
Speed
26-Dec-17 09:23 32.732933 -117.203538 268 29ft 0kts
26-Dec-17 09:24 32.732933 -117.203538 268 29ft 0kts
26-Dec-17 09:25 32.732933 -117.203538 268 29ft 0kts
26-Dec-17 09:26 32.732933 -117.203538 268 29ft 0kts
26-Dec-17 09:27 32.732933 -117.203538 268 29ft 0kts
26-Dec-17 09:28 32.732933 -117.203538 268 29ft 0kts
26-Dec-17 09:29 32.732933 -117.203538 268 29ft 0kts
26-Dec-17 09:30 32.732933 -117.203538 268 29ft 0kts
26-Dec-17 09:31 32.732933 -117.203538 268 29ft 0kts
26-Dec-17 09:32 32.732933 -117.203538 268 29ft 0kts
26-Dec-17 09:33 32.732933 -117.203538 268 29ft 0kts
26-Dec-17 09:34 32.732933 -117.203538 268 29ft 0kts
26-Dec-17 09:35 32.732933 -117.203538 268 29ft 0kts
26-Dec-17 09:36 32.732933 -117.203538 268 29ft 0kts
26-Dec-17 09:37 32.732933 -117.203538 268 29ft 0kts
26-Dec-17 09:38 32.732933 -117.203538 268 29ft 0kts
26-Dec-17 09:39 32.732933 -117.203538 268 29ft 0kts
26-Dec-17 09:40 32.732933 -117.203538 268 29ft 0kts
26-Dec-17 09:41 32.732933 -117.203538 268 29ft 0kts
26-Dec-17 09:42 32.732933 -117.203538 268 29ft 0kts
26-Dec-17 09:43 32.732933 -117.203538 268 29ft 0kts
26-Dec-17 09:44 32.732933 -117.203538 268 29ft 0kts
26-Dec-17 09:45 32.732933 -117.203538 268 29ft 0kts
26-Dec-17 09:46 32.732933 -117.203538 268 29ft 0kts
26-Dec-17 09:47 32.732933 -117.203538 268 29ft 0kts
26-Dec-17 09:48 32.732933 -117.203538 268 29ft 0kts
26-Dec-17 09:49 32.732933 -117.203538 268 29ft 0kts
26-Dec-17 09:50 32.732933 -117.203538 268 29ft 0kts
26-Dec-17 09:51 32.732933 -117.203538 268 29ft 0kts
26-Dec-17 09:52 32.732933 -117.203538 268 29ft 0kts
26-Dec-17 09:53 32.732933 -117.203538 268 29ft 0kts
26-Dec-17 09:54 32.732933 -117.203538 268 29ft 0kts
26-Dec-17 09:55 32.732945 -117.202907 268 29ft 2kts
26-Dec-17 09:56 32.732951 -117.202610 268 29ft 0kts
26-Dec-17 09:57 32.732951 -117.202611 268 29ft 0kts
26-Dec-17 09:58 32.733241 -117.202739 358 29ft 0kts
26-Dec-17 09:59 32.733273 -117.202740 358 29ft 0kts
26-Dec-17 10:00 32.734816 -117.202467 20 29ft 0kts
26-Dec-17 10:01 32.735429 -117.201724 97 29ft 12kts
26-Dec-17 10:02 32.734450 -117.197683 105 29ft 11kts
26-Dec-17 10:03 32.733782 -117.194925 105 29ft 5kts
26-Dec-17 10:04 32.732657 -117.190204 105 29ft 19kts
26-Dec-17 10:05 32.731304 -117.184705 106 29ft 15kts
26-Dec-17 10:06 32.730287 -117.180455 105 29ft 11kts
26-Dec-17 10:07 32.729544 -117.177349 105 29ft 6kts
26-Dec-17 10:08 32.729502 -117.176783 74 29ft 0kts
26-Dec-17 10:09 32.729502 -117.176783 74 29ft 0kts
26-Dec-17 10:10 32.729502 -117.176782 74 29ft 0kts
26-Dec-17 10:11 32.730150 -117.175774 318 29ft 7kts
26-Dec-17 10:12 32.731458 -117.180931 285 29ft 83kts
26-Dec-17 10:13 32.743911 -117.231415 293 867ft 209kts
26-Dec-17 10:14 32.782934 -117.292433 306 4396ft 246kts
26-Dec-17 10:15 32.826700 -117.360517 307 8045ft 274kts
26-Dec-17 10:16 32.875828 -117.436425 307 10813ft 323kts
26-Dec-17 10:17 32.933909 -117.526598 306 14049ft 355kts
26-Dec-17 10:18 32.994889 -117.621700 306 17723ft 365kts
26-Dec-17 10:19 33.057307 -117.719195 305 20827ft 377kts
26-Dec-17 10:20 33.136970 -117.804644 317 23336ft 394kts
26-Dec-17 10:21 33.222699 -117.890255 318 25556ft 407kts
26-Dec-17 10:22 33.311805 -117.976869 318 27521ft 419kts
26-Dec-17 10:23 33.403111 -118.065981 317 29223ft 430kts
26-Dec-17 10:24 33.496729 -118.157627 317 30809ft 436kts
26-Dec-17 10:25 33.591597 -118.247050 328 32642ft 434kts
26-Dec-17 10:26 33.700394 -118.304014 342 34346ft 433kts
26-Dec-17 10:27 33.809985 -118.253558 48 35214ft 474kts
26-Dec-17 10:28 33.886299 -118.124252 49 35216ft 474kts
26-Dec-17 10:29 33.962782 -117.994454 49 35208ft 474kts
26-Dec-17 10:30 34.039107 -117.865019 49 35214ft 474kts
26-Dec-17 10:31 34.117333 -117.736778 45 35212ft 472kts
26-Dec-17 10:32 34.200910 -117.614775 45 35213ft 472kts
26-Dec-17 10:33 34.284538 -117.492548 45 34931ft 473kts
26-Dec-17 10:34 34.368211 -117.369833 44 33928ft 472kts
26-Dec-17 10:35 34.452024 -117.246581 44 32928ft 476kts
26-Dec-17 10:36 34.536312 -117.122209 44 31929ft 480kts
26-Dec-17 10:37 34.621479 -116.996097 45 30927ft 484kts
26-Dec-17 10:38 34.707001 -116.869013 45 29926ft 488kts
26-Dec-17 10:39 34.792683 -116.741171 45 28922ft 483kts
26-Dec-17 10:40 34.879556 -116.619166 33 27922ft 466kts
26-Dec-17 10:41 34.979959 -116.521853 31 26923ft 458kts
26-Dec-17 10:42 35.077495 -116.427661 31 25922ft 427kts
26-Dec-17 10:43 35.161077 -116.331521 38 24918ft 406kts
26-Dec-17 10:44 35.239031 -116.233206 38 23918ft 393kts
26-Dec-17 10:45 35.314236 -116.138555 37 22915ft 384kts
26-Dec-17 10:46 35.387873 -116.045797 38 21915ft 377kts
26-Dec-17 10:47 35.460445 -115.954073 38 20912ft 369kts
26-Dec-17 10:48 35.529443 -115.866582 38 19911ft 346kts
26-Dec-17 10:49 35.594519 -115.783893 38 18911ft 329kts
26-Dec-17 10:50 35.656849 -115.704511 38 17906ft 315kts
26-Dec-17 10:51 35.719381 -115.624417 39 16908ft 335kts
26-Dec-17 10:52 35.781962 -115.543027 59 15910ft 335kts
26-Dec-17 10:53 35.818326 -115.438387 61 14910ft 328kts
26-Dec-17 10:54 35.853892 -115.336206 61 13910ft 320kts
26-Dec-17 10:55 35.889022 -115.236245 61 12906ft 313kts
26-Dec-17 10:56 35.923101 -115.138628 70 11894ft 309kts
26-Dec-17 10:57 35.920278 -115.032835 91 10905ft 306kts
26-Dec-17 10:58 35.916101 -114.929829 83 9901ft 293kts
26-Dec-17 10:59 35.927099 -114.833931 60 8882ft 265kts
26-Dec-17 11:00 35.986771 -114.808552 2 7899ft 227kts
26-Dec-17 11:01 36.041990 -114.822259 299 6868ft 209kts
26-Dec-17 11:02 36.063152 -114.888337 292 5914ft 204kts
26-Dec-17 11:03 36.073292 -114.956111 272 4857ft 189kts
26-Dec-17 11:04 36.073754 -115.013880 270 3945ft 154kts
26-Dec-17 11:05 36.073716 -115.056387 270 3308ft 155kts
26-Dec-17 11:06 36.073688 -115.108682 270 2551ft 154kts
26-Dec-17 11:07 36.073620 -115.151089 272 2195ft 50kts
26-Dec-17 11:08 35.511780 -115.889026 37 20176ft 336kts
26-Dec-17 11:09 36.074322 -115.154666 307 2195ft 2kts
26-Dec-17 11:10 36.077099 -115.158187 338 2195ft 12kts
26-Dec-17 11:11 36.077300 -115.158240 351 2195ft 0kts
26-Dec-17 11:12 36.078912 -115.158254 0 2195ft 10kts
26-Dec-17 11:13 36.081563 -115.158045 58 2195ft 8kts
26-Dec-17 11:14 36.081634 -115.155357 88 2195ft 7kts
26-Dec-17 11:15 36.082525 -115.154500 336 2195ft 5kts
26-Dec-17 11:16 36.082948 -115.153819 110 2195ft 3kts
26-Dec-17 11:17 36.082909 -115.153686 109 2195ft 0kts
26-Dec-17 11:18 36.082909 -115.153686 109 2195ft 0kts
26-Dec-17 11:19 36.082909 -115.153686 109 2195ft 0kts
26-Dec-17 11:20 36.082909 -115.153686 109 2195ft 0kts
26-Dec-17 11:21 36.082909 -115.153686 109 2195ft 0kts
26-Dec-17 11:22 36.082909 -115.153686 109 2195ft 0kts
26-Dec-17 11:23 36.082909 -115.153686 109 2195ft 0kts
26-Dec-17 11:24 36.082909 -115.153686 109 2195ft 0kts

Navigation Log

Ident Type
Flight plan parsing failed, navigation log unavailable